MNL weather

Ninoy Aquino International Airport
Manila, Philippines

Public forecast

Using degrees Celsius for public forecast. Weather courtesy of forecast.io.

METAR (pilot weather report)

Retrieved 2017/02/22 10:00 UTC (37 minutes ago):

RPLL 221000Z 11008KT 9999 FEW025 SCT100 29/22 Q1013 NOSIG RMK A2991

TAF (pilot weather forecast)

Retrieved 2017/02/22 06:00 UTC (5 hours ago):

TAF RPLL 220500Z 2206/2312 12010KT 9999 FEW025 SCT100 TX32/2206Z TN25/2221Z TEMPO 2206/2212 11012KT FEW025 SCT300 TEMPO 2212/2218 11005KT FEW025 TEMPO 2218/2224 12004KT